createdAt,value
2018-01-18T00:00:05.191Z,96944.63
2018-01-18T00:01:09.909Z,96947.22
2018-01-18T00:02:14.805Z,96947.63
2018-01-18T00:03:20.197Z,96948.64
2018-01-18T00:04:24.815Z,96940.55
2018-01-18T00:05:29.518Z,96937.66
2018-01-18T00:06:34.127Z,96938.41
2018-01-18T00:07:38.796Z,96941.67
2018-01-18T00:08:43.430Z,96942.35
2018-01-18T00:09:48.433Z,96939.82
2018-01-18T00:10:53.062Z,96938.27
2018-01-18T00:11:57.737Z,96937.48
2018-01-18T00:13:02.365Z,96934.98
2018-01-18T00:14:08.027Z,96936.30
2018-01-18T00:15:12.728Z,96935.52
2018-01-18T00:16:17.859Z,96937.54
2018-01-18T00:17:22.462Z,96928.15
2018-01-18T00:18:27.077Z,96931.55
2018-01-18T00:19:31.745Z,96926.11
2018-01-18T00:20:36.408Z,96932.19
2018-01-18T00:21:41.081Z,96928.44
2018-01-18T00:22:46.281Z,96919.72
2018-01-18T00:23:50.937Z,96926.83
2018-01-18T00:24:55.686Z,96923.92
2018-01-18T00:26:00.297Z,96908.69
2018-01-18T00:27:05.040Z,96911.17
2018-01-18T00:28:09.737Z,96901.06
2018-01-18T00:29:14.928Z,96906.48
2018-01-18T00:30:19.632Z,96903.31
2018-01-18T00:31:24.236Z,96901.35
2018-01-18T00:32:28.866Z,96897.70
2018-01-18T00:33:33.431Z,96902.10
2018-01-18T00:34:38.040Z,96904.23
2018-01-18T00:35:42.948Z,96907.25
2018-01-18T00:36:47.550Z,96906.70
2018-01-18T00:37:52.166Z,96908.69
2018-01-18T00:38:56.808Z,96905.50
2018-01-18T00:40:01.469Z,96905.81
2018-01-18T00:41:06.167Z,96900.58
2018-01-18T00:42:11.260Z,96899.83
2018-01-18T00:43:16.032Z,96904.20
2018-01-18T00:44:20.702Z,96895.05
2018-01-18T00:45:25.363Z,96895.88
2018-01-18T00:46:30.002Z,96901.23
2018-01-18T00:47:34.677Z,96895.88
2018-01-18T00:48:39.296Z,96895.88
2018-01-18T00:49:43.937Z,96890.07
2018-01-18T00:50:48.563Z,96896.86
2018-01-18T00:51:53.272Z,96890.36
2018-01-18T00:52:58.040Z,96894.53
2018-01-18T00:54:03.215Z,96890.38
2018-01-18T00:55:08.184Z,96882.64
2018-01-18T00:56:12.860Z,96883.56
2018-01-18T00:57:17.451Z,96879.25
2018-01-18T00:58:22.054Z,96881.72
2018-01-18T00:59:28.091Z,96877.84
2018-01-18T01:00:33.973Z,96876.28
2018-01-18T01:01:39.672Z,96876.34
2018-01-18T01:02:44.580Z,96875.62
2018-01-18T01:03:50.737Z,96882.55
2018-01-18T01:04:55.382Z,96874.20
2018-01-18T01:06:00.363Z,96874.55
2018-01-18T01:07:05.833Z,96865.52
2018-01-18T01:08:10.655Z,96869.23
2018-01-18T01:09:15.303Z,96868.56
2018-01-18T01:10:20.012Z,96869.36
2018-01-18T01:11:26.185Z,96870.75
2018-01-18T01:12:33.497Z,96864.27
2018-01-18T01:13:38.722Z,96871.41
2018-01-18T01:14:44.026Z,96871.88
2018-01-18T01:15:50.072Z,96869.02
2018-01-18T01:16:54.897Z,96866.63
2018-01-18T01:17:59.528Z,96867.38
2018-01-18T01:19:04.271Z,96859.06
2018-01-18T01:20:09.368Z,96862.34
2018-01-18T01:21:14.045Z,96852.38
2018-01-18T01:22:18.684Z,96856.67
2018-01-18T01:23:23.294Z,96850.51
2018-01-18T01:24:27.926Z,96855.12
2018-01-18T01:25:32.555Z,96840.27
2018-01-18T01:26:37.518Z,96848.44
2018-01-18T01:27:42.112Z,96844.89
2018-01-18T01:28:46.741Z,96851.14
2018-01-18T01:29:51.365Z,96844.48
2018-01-18T01:30:55.940Z,96843.19
2018-01-18T01:32:00.554Z,96847.36
2018-01-18T01:33:05.669Z,96844.73
2018-01-18T01:34:10.331Z,96840.19
2018-01-18T01:35:14.946Z,96839.33
2018-01-18T01:36:19.617Z,96839.33
2018-01-18T01:37:24.281Z,96833.25
2018-01-18T01:38:28.919Z,96827.09
2018-01-18T01:39:33.983Z,96826.78
2018-01-18T01:40:39.506Z,96836.38
2018-01-18T01:41:44.220Z,96814.34
2018-01-18T01:42:48.832Z,96818.05
2018-01-18T01:43:53.443Z,96807.68
2018-01-18T01:44:58.230Z,96795.85
2018-01-18T01:46:03.274Z,96800.41
2018-01-18T01:47:07.908Z,96791.73
2018-01-18T01:48:12.636Z,96783.04
2018-01-18T01:49:17.229Z,96784.00
2018-01-18T01:50:21.865Z,96782.45
2018-01-18T01:51:26.469Z,96780.97
2018-01-18T01:52:32.237Z,96780.31
2018-01-18T01:53:36.865Z,96771.34
2018-01-18T01:54:41.505Z,96767.16
2018-01-18T01:55:46.113Z,96780.34
2018-01-18T01:56:50.889Z,96770.94
2018-01-18T01:57:55.555Z,96768.48
2018-01-18T01:59:00.683Z,96771.24
2018-01-18T02:00:05.808Z,96769.05
2018-01-18T02:01:10.489Z,96776.13
2018-01-18T02:02:15.113Z,96769.17
2018-01-18T02:03:19.727Z,96757.13
2018-01-18T02:04:24.338Z,96759.20
2018-01-18T02:05:29.428Z,96785.61
2018-01-18T02:06:34.058Z,96778.98
2018-01-18T02:07:38.755Z,96777.77
2018-01-18T02:08:43.413Z,96782.70
2018-01-18T02:09:48.055Z,96766.69
2018-01-18T02:10:52.666Z,96768.05
2018-01-18T02:11:57.696Z,96776.31
2018-01-18T02:13:02.317Z,96762.58
2018-01-18T02:14:06.940Z,96774.55
2018-01-18T02:15:11.569Z,96760.63
2018-01-18T02:16:16.257Z,96765.89
2018-01-18T02:17:20.944Z,96762.73
2018-01-18T02:18:26.266Z,96757.07
2018-01-18T02:19:30.808Z,96750.02
2018-01-18T02:20:35.411Z,96746.89
2018-01-18T02:21:39.995Z,96738.97
2018-01-18T02:22:44.517Z,96740.76
2018-01-18T02:23:49.046Z,96730.48
2018-01-18T02:24:54.129Z,96730.58
2018-01-18T02:25:58.686Z,96733.88
2018-01-18T02:27:14.385Z,96730.05
2018-01-18T02:28:19.052Z,96720.64
2018-01-18T02:29:23.749Z,96727.97
2018-01-18T02:30:28.252Z,96729.48
2018-01-18T02:31:33.309Z,96723.83
2018-01-18T02:32:37.754Z,96721.16
2018-01-18T02:33:42.391Z,96721.16
2018-01-18T02:34:47.043Z,96712.19
2018-01-18T02:35:51.806Z,96720.42
2018-01-18T02:36:56.463Z,96722.58
2018-01-18T02:38:01.583Z,96715.22
2018-01-18T02:39:06.628Z,96707.36
2018-01-18T02:40:11.420Z,96712.74
2018-01-18T02:41:16.139Z,96698.64
2018-01-18T02:42:20.981Z,96703.98
2018-01-18T02:43:25.710Z,96707.85
2018-01-18T02:44:31.021Z,96711.66
2018-01-18T02:45:35.714Z,96710.14
2018-01-18T02:46:40.397Z,96703.64
2018-01-18T02:47:45.023Z,96705.43
2018-01-18T02:48:49.699Z,96695.41
2018-01-18T02:49:54.345Z,96688.85
2018-01-18T02:50:59.372Z,96687.61
2018-01-18T02:52:04.084Z,96686.84
2018-01-18T02:53:08.752Z,96694.57
2018-01-18T02:54:13.395Z,96676.20
2018-01-18T02:55:18.068Z,96679.88
2018-01-18T02:56:22.767Z,96667.59
2018-01-18T02:57:27.874Z,96674.28
2018-01-18T02:58:32.530Z,96670.53
2018-01-18T02:59:37.220Z,96661.28
2018-01-18T03:00:41.965Z,96667.38
2018-01-18T03:01:46.675Z,96657.52
2018-01-18T03:02:51.307Z,96656.25
2018-01-18T03:03:56.375Z,96656.77
2018-01-18T03:05:01.026Z,96640.23
2018-01-18T03:06:05.715Z,96647.55
2018-01-18T03:07:10.365Z,96644.55
2018-01-18T03:08:15.047Z,96636.17
2018-01-18T03:09:19.722Z,96629.21
2018-01-18T03:10:24.367Z,96627.54
2018-01-18T03:11:29.090Z,96631.16
2018-01-18T03:12:33.752Z,96621.72
2018-01-18T03:13:38.505Z,96610.16
2018-01-18T03:14:43.263Z,96604.77
2018-01-18T03:15:47.918Z,96601.45
2018-01-18T03:16:52.974Z,96600.00
2018-01-18T03:17:57.667Z,96595.85
2018-01-18T03:19:03.131Z,96586.88
2018-01-18T03:20:07.839Z,96583.55
2018-01-18T03:21:12.560Z,96573.70
2018-01-18T03:22:17.213Z,96570.05
2018-01-18T03:23:22.241Z,96572.44
2018-01-18T03:24:26.843Z,96561.88
2018-01-18T03:25:31.456Z,96563.75
2018-01-18T03:26:36.057Z,96573.69
2018-01-18T03:27:40.676Z,96558.40
2018-01-18T03:28:45.383Z,96558.44
2018-01-18T03:29:50.406Z,96560.88
2018-01-18T03:30:55.051Z,96547.69
2018-01-18T03:31:59.748Z,96557.09
2018-01-18T03:33:04.455Z,96551.20
2018-01-18T03:34:09.110Z,96559.91
2018-01-18T03:35:13.775Z,96534.65
2018-01-18T03:36:18.860Z,96556.13
2018-01-18T03:37:23.500Z,96535.25
2018-01-18T03:38:28.167Z,96534.42
2018-01-18T03:39:32.839Z,96531.17
2018-01-18T03:40:37.566Z,96523.20
2018-01-18T03:41:42.250Z,96520.42
2018-01-18T03:42:47.402Z,96529.94
2018-01-18T03:43:52.078Z,96510.83
2018-01-18T03:44:56.894Z,96522.33
2018-01-18T03:46:01.589Z,96506.94
2018-01-18T03:47:06.287Z,96497.57
2018-01-18T03:48:10.918Z,96505.70
2018-01-18T03:49:15.952Z,96490.30
2018-01-18T03:50:20.603Z,96479.95
2018-01-18T03:51:25.338Z,96472.53
2018-01-18T03:52:30.105Z,96470.48
2018-01-18T03:53:34.867Z,96456.50
2018-01-18T03:54:39.624Z,96443.86
2018-01-18T03:55:44.741Z,96458.68
2018-01-18T03:56:49.483Z,96476.89
2018-01-18T03:57:54.194Z,96453.66
2018-01-18T03:58:58.979Z,96436.83
2018-01-18T04:00:03.769Z,96452.56
2018-01-18T04:01:08.496Z,96416.14
2018-01-18T04:02:13.634Z,96428.92
2018-01-18T04:03:18.410Z,96420.73
2018-01-18T04:04:23.193Z,96416.84
2018-01-18T04:05:28.060Z,96418.59
2018-01-18T04:06:32.842Z,96405.58
2018-01-18T04:07:37.675Z,96397.83
2018-01-18T04:08:43.014Z,96399.90
2018-01-18T04:09:47.764Z,96387.30
2018-01-18T04:10:52.442Z,96405.06
2018-01-18T04:11:57.264Z,96377.86
2018-01-18T04:13:02.020Z,96354.63
2018-01-18T04:14:06.768Z,96369.09
2018-01-18T04:15:11.662Z,96349.93
2018-01-18T04:16:16.233Z,96348.70
2018-01-18T04:17:20.801Z,96342.44
2018-01-18T04:18:25.535Z,96332.97
2018-01-18T04:19:30.310Z,96340.17
2018-01-18T04:20:35.029Z,96332.81
2018-01-18T04:21:40.122Z,96327.03
2018-01-18T04:22:44.882Z,96316.03
2018-01-18T04:23:49.603Z,96322.69
2018-01-18T04:24:54.381Z,96306.27
2018-01-18T04:25:59.143Z,96297.61
2018-01-18T04:27:03.930Z,96291.50
2018-01-18T04:28:09.072Z,96294.08
2018-01-18T04:29:13.810Z,96284.47
2018-01-18T04:30:18.577Z,96267.98
2018-01-18T04:31:23.321Z,96259.10
2018-01-18T04:32:28.186Z,96261.10
2018-01-18T04:33:32.966Z,96247.53
2018-01-18T04:34:38.187Z,96247.27
2018-01-18T04:35:42.938Z,96242.83
2018-01-18T04:36:47.758Z,96253.46
2018-01-18T04:37:52.550Z,96234.90
2018-01-18T04:38:57.329Z,96235.37
2018-01-18T04:40:02.033Z,96244.03
2018-01-18T04:41:07.284Z,96233.33
2018-01-18T04:42:11.916Z,96231.30
2018-01-18T04:43:16.766Z,96223.36
2018-01-18T04:44:21.687Z,96226.02
2018-01-18T04:45:26.396Z,96207.50
2018-01-18T04:46:31.043Z,96207.53
2018-01-18T04:47:36.226Z,96196.69
2018-01-18T04:48:41.003Z,96188.94
2018-01-18T04:49:45.786Z,96177.84
2018-01-18T04:50:50.518Z,96174.93
2018-01-18T04:51:55.250Z,96165.03
2018-01-18T04:53:00.062Z,96161.25
2018-01-18T04:54:05.331Z,96156.23
2018-01-18T04:55:10.004Z,96163.28
2018-01-18T04:56:14.724Z,96141.09
2018-01-18T04:57:19.516Z,96135.70
2018-01-18T04:58:24.336Z,96119.66
2018-01-18T04:59:29.156Z,96124.36
2018-01-18T05:00:34.244Z,96119.27
2018-01-18T05:01:39.114Z,96104.32
2018-01-18T05:02:43.830Z,96099.84
2018-01-18T05:03:48.647Z,96098.72
2018-01-18T05:04:53.420Z,96101.88
2018-01-18T05:05:58.187Z,96102.28
2018-01-18T05:07:03.349Z,96095.78
2018-01-18T05:08:08.100Z,96094.58
2018-01-18T05:09:12.858Z,96090.75
2018-01-18T05:10:17.710Z,96084.36
2018-01-18T05:11:22.487Z,96085.95
2018-01-18T05:12:27.274Z,96079.22
2018-01-18T05:13:32.383Z,96068.48
2018-01-18T05:14:37.146Z,96064.41
2018-01-18T05:15:41.882Z,96068.64
2018-01-18T05:16:46.608Z,96051.20
2018-01-18T05:17:51.334Z,96046.73
2018-01-18T05:18:56.102Z,96037.36
2018-01-18T05:20:01.142Z,96033.05
2018-01-18T05:21:05.916Z,96034.69
2018-01-18T05:22:10.636Z,96020.05
2018-01-18T05:23:15.402Z,96044.19
2018-01-18T05:24:20.161Z,96018.09
2018-01-18T05:25:24.916Z,96038.45
2018-01-18T05:26:30.085Z,96021.02
2018-01-18T05:27:34.895Z,96022.33
2018-01-18T05:28:39.727Z,96009.44
2018-01-18T05:29:44.434Z,96019.58
2018-01-18T05:30:49.154Z,96012.87
2018-01-18T05:31:53.898Z,96000.19
2018-01-18T05:32:58.684Z,96003.58
2018-01-18T05:34:03.488Z,95999.22
2018-01-18T05:35:08.270Z,96016.59
2018-01-18T05:36:12.944Z,96005.84
2018-01-18T05:37:17.638Z,96009.00
2018-01-18T05:38:22.346Z,96007.17
2018-01-18T05:39:27.415Z,95994.88
2018-01-18T05:40:32.062Z,95984.53
2018-01-18T05:41:36.797Z,95980.42
2018-01-18T05:42:41.443Z,95984.86
2018-01-18T05:43:46.107Z,95977.99
2018-01-18T05:44:50.777Z,95978.91
2018-01-18T05:45:55.924Z,95969.17
2018-01-18T05:47:00.546Z,95972.00
2018-01-18T05:48:05.230Z,95979.78
2018-01-18T05:49:09.863Z,95965.42
2018-01-18T05:50:14.546Z,95962.19
2018-01-18T05:51:19.207Z,95975.36
2018-01-18T05:52:24.215Z,95974.04
2018-01-18T05:53:28.901Z,95979.83
2018-01-18T05:54:33.592Z,95978.71
2018-01-18T05:55:38.291Z,95976.92
2018-01-18T05:56:43.014Z,95985.90
2018-01-18T05:57:47.684Z,95960.55
2018-01-18T05:58:52.815Z,95962.59
2018-01-18T05:59:57.392Z,95960.63
2018-01-18T06:01:02.007Z,95942.47
2018-01-18T06:02:06.671Z,95951.21
2018-01-18T06:03:11.280Z,95923.06
2018-01-18T06:04:15.964Z,95953.25
2018-01-18T06:05:21.114Z,95925.02
2018-01-18T06:06:25.756Z,95938.19
2018-01-18T06:07:30.447Z,95901.02
2018-01-18T06:08:35.241Z,95939.54
2018-01-18T06:09:39.903Z,95920.89
2018-01-18T06:10:44.607Z,95906.03
2018-01-18T06:11:49.656Z,95891.91
2018-01-18T06:12:54.352Z,95893.66
2018-01-18T06:13:59.071Z,95892.93
2018-01-18T06:15:03.736Z,95915.00
2018-01-18T06:16:08.486Z,95899.77
2018-01-18T06:17:13.370Z,95842.19
2018-01-18T06:18:18.649Z,95869.30
2018-01-18T06:19:23.352Z,95889.88
2018-01-18T06:20:28.103Z,95858.88
2018-01-18T06:21:32.837Z,95859.22
2018-01-18T06:22:37.627Z,95872.35
2018-01-18T06:23:42.400Z,95873.95
2018-01-18T06:24:47.576Z,95864.80
2018-01-18T06:25:52.325Z,95879.14
2018-01-18T06:26:57.101Z,95845.34
2018-01-18T06:28:01.859Z,95876.75
2018-01-18T06:29:06.620Z,95843.88
2018-01-18T06:30:11.359Z,95835.78
2018-01-18T06:31:16.386Z,95826.94
2018-01-18T06:32:20.923Z,95816.67
2018-01-18T06:33:25.548Z,95813.97
2018-01-18T06:34:30.198Z,95791.63
2018-01-18T06:35:34.989Z,95819.55
2018-01-18T06:36:39.847Z,95837.23
2018-01-18T06:37:45.185Z,95773.48
2018-01-18T06:38:49.994Z,95774.94
2018-01-18T06:39:55.039Z,95779.90
2018-01-18T06:40:59.831Z,95762.45
2018-01-18T06:42:04.271Z,95754.04
2018-01-18T06:43:09.039Z,95703.85
2018-01-18T06:44:14.669Z,95757.14
2018-01-18T06:45:19.377Z,95762.90
2018-01-18T06:46:24.001Z,95773.78
2018-01-18T06:47:28.756Z,95749.38
2018-01-18T06:48:34.059Z,95745.80
2018-01-18T06:49:39.788Z,95734.52
2018-01-18T06:50:45.041Z,95708.77
2018-01-18T06:51:49.777Z,95714.05
2018-01-18T06:52:54.430Z,95719.52
2018-01-18T06:53:59.063Z,95726.91
2018-01-18T06:55:03.719Z,95710.09
2018-01-18T06:56:08.351Z,95708.16
2018-01-18T06:57:13.372Z,95696.97
2018-01-18T06:58:18.153Z,95707.77
2018-01-18T06:59:22.822Z,95723.34
2018-01-18T07:00:27.516Z,95705.67
2018-01-18T07:01:32.177Z,95731.30
2018-01-18T07:02:36.773Z,95673.50
2018-01-18T07:03:41.893Z,95701.25
2018-01-18T07:04:58.575Z,95686.41
2018-01-18T07:07:18.401Z,95758.20
2018-01-18T07:08:25.580Z,95633.81
2018-01-18T07:09:30.201Z,95691.77
2018-01-18T07:10:35.306Z,95662.33
2018-01-18T07:11:40.055Z,95627.55
2018-01-18T07:12:44.713Z,95683.32
2018-01-18T07:13:49.376Z,95644.77
2018-01-18T07:14:54.083Z,95635.22
2018-01-18T07:15:58.783Z,95640.05
2018-01-18T07:17:03.909Z,95685.27
2018-01-18T07:18:08.650Z,95629.49
2018-01-18T07:19:13.319Z,95670.25
2018-01-18T07:20:18.095Z,95693.99
2018-01-18T07:21:22.767Z,95626.91
2018-01-18T07:22:27.467Z,95597.95
2018-01-18T07:23:32.757Z,95646.72
2018-01-18T07:24:37.655Z,95634.25
2018-01-18T07:25:42.569Z,95655.81
2018-01-18T07:26:48.514Z,95648.87
2018-01-18T07:27:53.274Z,95650.77
2018-01-18T07:28:57.952Z,95630.73
2018-01-18T07:30:03.203Z,95596.59
2018-01-18T07:31:08.535Z,95642.11
2018-01-18T07:32:13.216Z,95577.60
2018-01-18T07:33:17.978Z,95621.30
2018-01-18T07:34:22.727Z,95588.78
2018-01-18T07:35:27.510Z,95618.23
2018-01-18T07:36:32.582Z,95615.62
2018-01-18T07:37:37.324Z,95573.49
2018-01-18T07:38:42.061Z,95568.63
2018-01-18T07:39:46.787Z,95579.70
2018-01-18T07:40:51.452Z,95581.59
2018-01-18T07:41:56.435Z,95599.69
2018-01-18T07:43:01.514Z,95601.63
2018-01-18T07:44:06.186Z,95547.95
2018-01-18T07:45:10.740Z,95605.64
2018-01-18T07:46:15.282Z,95626.87
2018-01-18T07:47:19.912Z,95595.13
2018-01-18T07:48:24.690Z,95603.86
2018-01-18T07:49:30.052Z,95575.28
2018-01-18T07:50:34.862Z,95596.31
2018-01-18T07:51:39.637Z,95573.00
2018-01-18T07:52:44.462Z,95578.01
2018-01-18T07:53:53.300Z,95594.58
2018-01-18T07:54:58.554Z,95577.66
2018-01-18T07:56:03.327Z,95560.25
2018-01-18T07:57:12.152Z,95563.77
2018-01-18T07:58:16.911Z,95520.10
2018-01-18T07:59:21.674Z,95546.11
2018-01-18T08:00:26.448Z,95550.16
2018-01-18T08:01:31.606Z,95527.91
2018-01-18T08:02:37.246Z,95536.89
2018-01-18T08:03:45.996Z,95592.33
2018-01-18T08:04:50.756Z,95557.14
2018-01-18T08:05:55.511Z,95538.44
2018-01-18T08:07:00.274Z,95537.33
2018-01-18T08:08:05.401Z,95575.36
2018-01-18T08:09:10.159Z,95536.84
2018-01-18T08:10:14.939Z,95548.31
2018-01-18T08:11:19.731Z,95535.79
2018-01-18T08:12:24.589Z,95542.27
2018-01-18T08:13:29.321Z,95565.15
2018-01-18T08:14:34.455Z,95553.97
2018-01-18T08:15:39.307Z,95579.09
2018-01-18T08:16:44.055Z,95562.45
2018-01-18T08:17:48.882Z,95539.21
2018-01-18T08:18:53.577Z,95557.14
2018-01-18T08:19:58.147Z,95544.32
2018-01-18T08:21:03.092Z,95507.92
2018-01-18T08:22:07.816Z,95543.47
2018-01-18T08:23:12.599Z,95555.56
2018-01-18T08:24:17.358Z,95557.48
2018-01-18T08:25:22.200Z,95520.69
2018-01-18T08:26:27.022Z,95555.39
2018-01-18T08:27:32.049Z,95545.02
2018-01-18T08:28:37.132Z,95556.52
2018-01-18T08:29:41.962Z,95528.21
2018-01-18T08:30:46.786Z,95527.48
2018-01-18T08:31:51.619Z,95529.33
2018-01-18T08:32:56.393Z,95543.84
2018-01-18T08:34:01.699Z,95573.84
2018-01-18T08:35:06.482Z,95465.14
2018-01-18T08:36:11.291Z,95510.53
2018-01-18T08:37:16.163Z,95497.32
2018-01-18T08:38:20.887Z,95495.73
2018-01-18T08:39:25.589Z,95506.49
2018-01-18T08:40:30.589Z,95480.52
2018-01-18T08:41:35.348Z,95506.45
2018-01-18T08:42:40.046Z,95480.81
2018-01-18T08:43:44.854Z,95503.30
2018-01-18T08:44:49.895Z,95475.26
2018-01-18T08:45:54.681Z,95477.56
2018-01-18T08:46:59.865Z,95485.67
2018-01-18T08:48:04.721Z,95501.39
2018-01-18T08:49:09.548Z,95499.38
2018-01-18T08:50:14.912Z,95502.48
2018-01-18T08:51:19.727Z,95494.57
2018-01-18T08:52:24.405Z,95512.23
2018-01-18T08:53:29.422Z,95526.13
2018-01-18T08:54:34.145Z,95581.55
2018-01-18T08:55:38.913Z,95518.87
2018-01-18T08:56:43.657Z,95469.39
2018-01-18T08:57:48.327Z,95500.98
2018-01-18T08:58:53.071Z,95494.94
2018-01-18T08:59:58.197Z,95483.12
2018-01-18T09:01:03.051Z,95492.18
2018-01-18T09:02:07.794Z,95508.52
2018-01-18T09:03:12.535Z,95464.48
2018-01-18T09:04:17.201Z,95438.64
2018-01-18T09:05:21.895Z,95470.46
2018-01-18T09:06:27.217Z,95450.40
2018-01-18T09:07:32.053Z,95452.38
2018-01-18T09:08:36.834Z,95426.13
2018-01-18T09:09:41.638Z,95429.46
2018-01-18T09:10:46.378Z,95432.46
2018-01-18T09:11:53.487Z,95428.78
2018-01-18T09:12:59.735Z,95409.16
2018-01-18T09:14:06.112Z,95405.87
2018-01-18T09:15:21.483Z,95430.20
2018-01-18T09:16:27.300Z,95429.86
2018-01-18T09:17:32.828Z,95473.29
2018-01-18T09:18:39.017Z,95430.90
2018-01-18T09:19:45.632Z,95421.39
2018-01-18T09:20:51.403Z,95439.61
2018-01-18T09:21:56.327Z,95398.98
2018-01-18T09:23:00.985Z,95389.69
2018-01-18T09:24:05.660Z,95405.53
2018-01-18T09:25:10.266Z,95407.09
2018-01-18T09:26:15.439Z,95388.08
2018-01-18T09:27:20.147Z,95415.33
2018-01-18T09:28:24.940Z,95421.38
2018-01-18T09:29:29.732Z,95371.14
2018-01-18T09:30:35.688Z,95393.78
2018-01-18T09:31:40.500Z,95353.98
2018-01-18T09:32:45.946Z,95404.32
2018-01-18T09:33:50.661Z,95365.44
2018-01-18T09:34:55.470Z,95407.55
2018-01-18T09:36:00.213Z,95408.98
2018-01-18T09:37:05.063Z,95393.02
2018-01-18T09:38:09.818Z,95377.17
2018-01-18T09:39:14.861Z,95429.78
2018-01-18T09:40:21.359Z,95387.84
2018-01-18T09:41:26.858Z,95364.63
2018-01-18T09:42:31.612Z,95383.23
2018-01-18T09:43:36.318Z,95369.39
2018-01-18T09:44:41.081Z,95364.15
2018-01-18T09:45:46.507Z,95387.71
2018-01-18T09:46:51.243Z,95385.80
2018-01-18T09:47:57.492Z,95340.55
2018-01-18T09:49:02.508Z,95376.72
2018-01-18T09:50:07.299Z,95395.08
2018-01-18T09:51:12.213Z,95352.47
2018-01-18T09:52:17.482Z,95313.09
2018-01-18T09:53:22.320Z,95320.19
2018-01-18T09:54:27.124Z,95308.56
2018-01-18T09:55:31.913Z,95364.00
2018-01-18T09:56:36.670Z,95365.13
2018-01-18T09:57:41.479Z,95360.27
2018-01-18T09:58:46.864Z,95347.36
2018-01-18T09:59:51.740Z,95372.49
2018-01-18T10:00:56.481Z,95386.55
2018-01-18T10:02:01.329Z,95384.67
2018-01-18T10:03:06.095Z,95417.98
2018-01-18T10:04:10.848Z,95371.95
2018-01-18T10:05:16.139Z,95402.60
2018-01-18T10:06:20.868Z,95395.78
2018-01-18T10:07:25.637Z,95372.77
2018-01-18T10:08:30.380Z,95375.57
2018-01-18T10:09:35.094Z,95373.09
2018-01-18T10:10:41.032Z,95358.62
2018-01-18T10:11:46.982Z,95360.28
2018-01-18T10:12:52.452Z,95366.70
2018-01-18T10:13:59.254Z,95359.29
2018-01-18T10:15:07.177Z,95359.03
2018-01-18T10:16:13.107Z,95313.19
2018-01-18T10:17:18.526Z,95326.23
2018-01-18T10:18:23.426Z,95235.50
2018-01-18T10:19:27.954Z,95312.55
2018-01-18T10:20:32.595Z,95211.49
2018-01-18T10:21:37.325Z,95353.46
2018-01-18T10:22:42.769Z,95316.54
2018-01-18T10:23:47.958Z,95364.41
2018-01-18T10:24:52.687Z,95391.10
2018-01-18T10:25:57.650Z,95376.70
2018-01-18T10:27:02.330Z,95285.55
2018-01-18T10:28:07.180Z,95359.16
2018-01-18T10:29:12.507Z,95343.37
2018-01-18T10:30:17.729Z,95383.65
2018-01-18T10:31:22.758Z,95376.13
2018-01-18T10:32:27.479Z,95200.80
2018-01-18T10:33:32.287Z,95355.15
2018-01-18T10:34:37.010Z,95386.03
2018-01-18T10:35:41.767Z,95353.79
2018-01-18T10:36:46.925Z,95364.69
2018-01-18T10:37:51.546Z,95335.08
2018-01-18T10:38:56.340Z,95282.51
2018-01-18T10:40:01.597Z,95159.03
2018-01-18T10:41:07.071Z,95161.34
2018-01-18T10:42:11.740Z,95341.36
2018-01-18T10:43:17.983Z,95145.80
2018-01-18T10:44:23.566Z,95330.27
2018-01-18T10:45:28.320Z,95389.69
2018-01-18T10:46:33.784Z,95386.53
2018-01-18T10:47:42.364Z,95440.80
2018-01-18T10:48:49.250Z,95390.45
2018-01-18T10:49:54.652Z,95387.61
2018-01-18T10:50:59.885Z,95381.62
2018-01-18T10:52:04.751Z,95279.55
2018-01-18T10:53:10.501Z,95401.42
2018-01-18T10:54:16.086Z,95313.75
2018-01-18T10:55:22.491Z,95415.32
2018-01-18T10:56:28.723Z,95365.24
2018-01-18T10:57:34.133Z,95342.66
2018-01-18T10:58:39.424Z,95179.06
2018-01-18T10:59:44.504Z,95370.88
2018-01-18T11:00:49.997Z,95303.55
2018-01-18T11:01:56.641Z,95311.52
2018-01-18T11:03:03.214Z,95262.69
2018-01-18T11:04:08.191Z,95333.30
2018-01-18T11:05:13.368Z,95319.15
2018-01-18T11:06:18.710Z,95407.03
2018-01-18T11:07:24.026Z,95427.03
2018-01-18T11:08:29.950Z,95352.84
2018-01-18T11:09:36.668Z,95410.36
2018-01-18T11:10:42.043Z,95390.09
2018-01-18T11:11:47.611Z,95458.32
2018-01-18T11:12:53.392Z,95442.72
2018-01-18T11:13:59.729Z,95495.42
2018-01-18T11:15:06.192Z,95488.85
2018-01-18T11:16:11.103Z,95522.45
2018-01-18T11:17:18.381Z,95539.28
2018-01-18T11:18:24.388Z,95537.11
2018-01-18T11:19:30.629Z,95520.39
2018-01-18T11:20:35.423Z,95532.34
2018-01-18T11:21:41.873Z,95529.74
2018-01-18T11:22:46.739Z,95375.13
2018-01-18T11:23:52.824Z,95443.36
2018-01-18T11:25:00.348Z,95552.55
2018-01-18T11:26:08.158Z,95460.66
2018-01-18T11:27:15.019Z,95537.97
2018-01-18T11:28:24.496Z,95452.61
2018-01-18T11:29:32.831Z,95539.34
2018-01-18T11:30:41.408Z,95559.97
2018-01-18T11:31:48.596Z,95543.28
2018-01-18T11:32:53.929Z,95572.63
2018-01-18T11:34:01.088Z,95538.18
2018-01-18T11:35:07.996Z,95372.43
2018-01-18T11:36:16.974Z,95547.86
2018-01-18T11:37:27.566Z,95461.61
2018-01-18T11:38:34.777Z,95531.57
2018-01-18T11:39:41.821Z,95329.67
2018-01-18T11:40:49.046Z,95493.23
2018-01-18T11:41:55.401Z,95517.41
2018-01-18T11:43:01.946Z,95490.75
2018-01-18T11:44:09.510Z,95452.81
2018-01-18T11:45:15.626Z,95467.06
2018-01-18T11:46:21.689Z,95560.06
2018-01-18T11:47:28.683Z,95596.63
2018-01-18T11:48:35.622Z,95562.25
2018-01-18T11:49:44.324Z,95532.00
2018-01-18T11:50:52.952Z,95519.52
2018-01-18T11:51:58.804Z,95554.24
2018-01-18T11:53:05.367Z,95621.75
2018-01-18T11:54:12.688Z,95626.48
2018-01-18T11:55:19.535Z,95528.52
2018-01-18T11:56:25.659Z,95606.27
2018-01-18T11:57:32.674Z,95440.12
2018-01-18T11:58:41.315Z,95629.36
2018-01-18T11:59:49.296Z,95654.47
2018-01-18T12:00:57.790Z,95666.95
2018-01-18T12:02:03.753Z,95622.91
2018-01-18T12:03:11.986Z,95667.45
2018-01-18T12:04:19.513Z,95634.71
2018-01-18T12:05:26.772Z,95489.25
2018-01-18T12:06:36.015Z,95557.31
2018-01-18T12:07:44.883Z,95602.05
2018-01-18T12:08:54.453Z,95696.25
2018-01-18T12:10:03.320Z,95709.39
2018-01-18T12:11:09.725Z,95688.55
2018-01-18T12:12:17.876Z,95707.47
2018-01-18T12:13:25.557Z,95634.78
2018-01-18T12:14:36.217Z,95684.64
2018-01-18T12:15:44.544Z,95751.77
2018-01-18T12:16:53.798Z,95655.38
2018-01-18T12:18:01.966Z,95723.34
2018-01-18T12:19:10.256Z,95762.27
2018-01-18T12:20:16.334Z,95759.09
2018-01-18T12:21:24.313Z,95783.45
2018-01-18T12:22:32.936Z,95752.80
2018-01-18T12:23:42.833Z,95714.51
2018-01-18T12:24:52.436Z,95756.42
2018-01-18T12:26:02.055Z,95756.14
2018-01-18T12:27:10.525Z,95763.89
2018-01-18T12:28:17.621Z,95760.50
2018-01-18T12:29:27.865Z,95786.55
2018-01-18T12:30:35.826Z,95677.47
2018-01-18T12:31:44.162Z,95693.78
2018-01-18T12:32:52.586Z,95727.52
2018-01-18T12:34:01.680Z,95811.23
2018-01-18T12:35:10.810Z,95783.42
2018-01-18T12:36:17.158Z,95831.65
2018-01-18T12:37:23.604Z,95837.50
2018-01-18T12:38:33.467Z,95815.80
2018-01-18T12:39:42.049Z,95808.91
2018-01-18T12:40:49.726Z,95878.03
2018-01-18T12:41:59.465Z,95864.67
2018-01-18T12:43:09.029Z,95804.88
2018-01-18T12:44:18.172Z,95841.41
2018-01-18T12:45:25.543Z,95844.84
2018-01-18T12:46:33.457Z,95871.73
2018-01-18T12:47:42.305Z,95819.65